Date,TemperatureHighF,TemperatureAvgF,TemperatureLowF,DewpointHighF,DewpointAvgF,DewpointLowF,HumidityHigh,HumidityAvg,HumidityLow,PressureMaxIn,PressureMinIn,WindSpeedMaxMPH,WindSpeedAvgMPH,GustSpeedMaxMPH,PrecipitationSumIn
2013-2-1,42,37,27,30,17,8,64,45,28,30.39,29.91,8,3,0,0.00
2013-2-2,28,28,27,13,12,12,54,52,50,30.39,30.37,1,0,0,0.00
2013-2-3,51,45,42,29,27,26,56,49,41,30.00,29.90,6,4,15,0.00
2013-2-4,51,41,31,31,27,23,77,59,44,30.16,30.01,3,1,0,0.00
2013-2-5,63,49,40,40,35,31,75,59,41,30.00,29.89,5,1,8,0.00
2013-2-6,63,47,37,42,34,24,95,69,23,30.17,29.99,4,1,6,0.00
2013-2-7,44,41,39,40,34,27,94,75,52,30.30,30.07,3,1,8,0.50
2013-2-8,58,47,38,48,40,30,94,78,48,30.08,29.88,7,2,12,0.03
2013-2-9,58,44,35,30,26,20,76,53,24,30.35,30.12,5,1,6,0.00
2013-2-10,56,45,35,41,29,24,82,56,29,30.47,30.25,2,0,5,0.11
2013-2-11,58,51,44,56,49,42,97,94,92,30.17,29.96,7,1,11,0.12
2013-2-12,60,52,43,50,39,30,95,64,34,30.11,29.90,2,0,7,0.00
2013-2-13,50,46,43,46,43,37,95,88,67,29.91,29.65,4,1,9,0.04
2013-2-14,52,42,33,38,34,31,93,77,53,30.07,29.89,4,1,6,0.01
2013-2-15,61,48,34,45,37,33,95,68,36,30.11,29.93,6,1,9,0.00
2013-2-16,46,40,37,36,32,30,84,73,63,29.98,29.86,2,1,5,0.00
2013-2-17,42,34,27,23,16,12,76,50,30,30.28,30.02,6,3,13,0.09
2013-2-18,55,41,27,34,25,16,78,53,39,30.40,30.25,2,0,5,0.00
2013-2-19,48,42,38,44,37,28,94,80,56,30.22,29.89,5,2,10,0.19
2013-2-20,54,44,36,26,19,12,48,37,23,30.14,30.02,6,2,12,0.00
2013-2-21,58,43,29,34,22,14,69,46,24,30.24,30.11,2,0,4,0.00
2013-2-22,42,38,37,37,36,36,95,92,82,30.31,30.17,2,1,6,0.53
2013-2-23,45,40,36,44,39,35,96,95,94,30.16,29.86,2,0,3,0.42
2013-2-24,65,52,41,47,39,29,97,70,29,30.01,29.86,4,1,7,0.00
2013-2-25,43,41,39,30,28,26,65,60,52,30.20,30.02,3,1,7,0.00